createdAt,value
2022-12-17T00:00:13.646Z,28.97
2022-12-17T00:03:00.435Z,31.83
2022-12-17T00:05:45.974Z,31.83
2022-12-17T00:08:31.669Z,30.20
2022-12-17T00:11:32.143Z,31.87
2022-12-17T00:14:17.675Z,30.27
2022-12-17T00:17:03.659Z,30.40
2022-12-17T00:19:50.488Z,28.33
2022-12-17T00:22:36.104Z,30.57
2022-12-17T00:25:21.704Z,27.03
2022-12-17T00:28:07.548Z,25.57
2022-12-17T00:30:52.986Z,34.03
2022-12-17T00:33:39.186Z,30.30
2022-12-17T00:36:26.733Z,28.13
2022-12-17T00:39:12.220Z,27.27
2022-12-17T00:41:57.880Z,28.30
2022-12-17T00:44:43.343Z,27.80
2022-12-17T00:47:28.884Z,28.73
2022-12-17T00:50:14.792Z,30.90
2022-12-17T00:53:02.015Z,26.90
2022-12-17T00:55:48.294Z,27.67
2022-12-17T00:58:34.069Z,23.10
2022-12-17T01:01:20.387Z,26.17
2022-12-17T01:04:05.984Z,25.73
2022-12-17T01:06:52.599Z,27.83
2022-12-17T01:09:40.946Z,28.70
2022-12-17T01:12:26.388Z,24.50
2022-12-17T01:15:13.120Z,26.93
2022-12-17T01:17:59.023Z,28.67
2022-12-17T01:20:45.014Z,22.97
2022-12-17T01:23:30.544Z,25.57
2022-12-17T01:26:20.936Z,21.53
2022-12-17T01:29:07.039Z,27.20
2022-12-17T01:31:52.532Z,24.73
2022-12-17T01:34:38.099Z,27.17
2022-12-17T01:37:23.961Z,27.93
2022-12-17T01:40:11.011Z,27.40
2022-12-17T01:43:06.063Z,30.03
2022-12-17T01:45:55.739Z,23.37
2022-12-17T01:48:47.357Z,23.30
2022-12-17T01:51:33.653Z,26.07
2022-12-17T01:54:20.586Z,26.67
2022-12-17T01:57:06.362Z,29.83
2022-12-17T01:59:59.884Z,25.13
2022-12-17T02:02:46.162Z,20.30
2022-12-17T02:05:37.726Z,24.83
2022-12-17T02:08:33.850Z,27.50
2022-12-17T02:11:27.534Z,22.80
2022-12-17T02:14:18.050Z,25.00
2022-12-17T02:17:09.580Z,28.10
2022-12-17T02:20:09.452Z,30.30
2022-12-17T02:23:07.093Z,27.63
2022-12-17T02:26:00.548Z,24.10
2022-12-17T02:28:49.890Z,23.43
2022-12-17T02:31:37.182Z,24.90
2022-12-17T02:34:22.622Z,21.67
2022-12-17T02:37:09.310Z,25.43
2022-12-17T02:39:56.519Z,27.40
2022-12-17T02:42:45.505Z,22.53
2022-12-17T02:45:33.347Z,23.97
2022-12-17T02:48:20.220Z,23.07
2022-12-17T02:51:06.801Z,25.53
2022-12-17T02:53:52.461Z,26.30
2022-12-17T02:56:38.404Z,24.50
2022-12-17T02:59:23.809Z,23.90
2022-12-17T03:02:10.677Z,24.13
2022-12-17T03:04:56.304Z,26.33
2022-12-17T03:07:41.925Z,23.80
2022-12-17T03:10:27.723Z,28.73
2022-12-17T03:13:13.252Z,25.57
2022-12-17T03:15:58.897Z,29.63
2022-12-17T03:18:46.064Z,26.03
2022-12-17T03:21:31.522Z,23.87
2022-12-17T03:24:17.049Z,26.60
2022-12-17T03:27:02.687Z,27.73
2022-12-17T03:29:48.129Z,26.83
2022-12-17T03:32:33.802Z,28.60
2022-12-17T03:35:21.014Z,27.07
2022-12-17T03:38:06.909Z,25.67
2022-12-17T03:40:52.482Z,25.80
2022-12-17T03:43:38.336Z,23.40
2022-12-17T03:46:24.364Z,25.50
2022-12-17T03:49:09.939Z,29.70
2022-12-17T03:51:56.969Z,32.67
2022-12-17T03:54:47.628Z,26.73
2022-12-17T03:57:33.456Z,29.10
2022-12-17T04:00:18.893Z,29.40
2022-12-17T04:03:04.587Z,27.70
2022-12-17T04:05:50.190Z,29.30
2022-12-17T04:08:36.967Z,25.57
2022-12-17T04:11:23.480Z,26.57
2022-12-17T04:14:09.163Z,29.97
2022-12-17T04:16:54.659Z,26.97
2022-12-17T04:19:48.516Z,25.40
2022-12-17T04:22:34.125Z,27.63
2022-12-17T04:25:20.860Z,23.27
2022-12-17T04:28:06.424Z,30.13
2022-12-17T04:30:52.291Z,30.07
2022-12-17T04:33:37.896Z,28.57
2022-12-17T04:36:24.255Z,32.57
2022-12-17T04:39:10.054Z,28.00
2022-12-17T04:41:56.808Z,28.13
2022-12-17T04:44:42.308Z,30.40
2022-12-17T04:47:27.989Z,28.90
2022-12-17T04:50:13.446Z,32.30
2022-12-17T04:52:59.495Z,29.27
2022-12-17T04:55:45.144Z,31.30
2022-12-17T04:58:32.118Z,37.00
2022-12-17T05:01:17.962Z,27.97
2022-12-17T05:04:03.374Z,32.67
2022-12-17T05:06:49.674Z,31.77
2022-12-17T05:09:34.935Z,24.87
2022-12-17T05:12:20.850Z,27.70
2022-12-17T05:15:13.244Z,28.40
2022-12-17T05:17:58.993Z,31.03
2022-12-17T05:20:44.437Z,29.50
2022-12-17T05:23:30.326Z,30.80
2022-12-17T05:26:23.468Z,30.23
2022-12-17T05:29:14.038Z,27.30
2022-12-17T05:32:02.848Z,29.10
2022-12-17T05:34:48.301Z,26.07
2022-12-17T05:37:34.029Z,28.93
2022-12-17T05:40:19.443Z,32.30
2022-12-17T05:43:13.694Z,29.23
2022-12-17T05:45:59.349Z,27.47
2022-12-17T05:48:46.574Z,33.20
2022-12-17T05:51:37.042Z,29.20
2022-12-17T05:54:24.140Z,30.50
2022-12-17T05:57:24.510Z,32.30
2022-12-17T06:00:10.314Z,29.83
2022-12-17T06:02:59.280Z,29.40
2022-12-17T06:05:46.094Z,29.57
2022-12-17T06:08:31.920Z,32.80
2022-12-17T06:11:15.240Z,34.67
2022-12-17T06:14:00.924Z,31.87
2022-12-17T06:16:45.790Z,33.30
2022-12-17T06:19:31.715Z,35.37
2022-12-17T06:22:20.025Z,35.57
2022-12-17T06:25:05.421Z,34.57
2022-12-17T06:27:50.951Z,35.83
2022-12-17T06:30:36.709Z,31.53
2022-12-17T06:33:23.782Z,35.50
2022-12-17T06:36:14.282Z,32.90
2022-12-17T06:39:05.467Z,28.53
2022-12-17T06:41:50.899Z,34.07
2022-12-17T06:44:36.583Z,30.13
2022-12-17T06:47:22.084Z,35.57
2022-12-17T06:50:07.686Z,32.80
2022-12-17T06:52:53.328Z,31.90
2022-12-17T06:55:40.408Z,29.43
2022-12-17T06:58:25.786Z,29.23
2022-12-17T07:01:11.603Z,31.20
2022-12-17T07:03:57.186Z,30.53
2022-12-17T07:06:42.722Z,31.40
2022-12-17T07:09:28.116Z,32.10
2022-12-17T07:12:15.098Z,28.97
2022-12-17T07:15:00.538Z,29.90
2022-12-17T07:17:46.515Z,30.50
2022-12-17T07:20:32.132Z,28.40
2022-12-17T07:23:29.295Z,35.57
2022-12-17T07:26:16.257Z,32.50
2022-12-17T07:29:02.920Z,31.23
2022-12-17T07:31:48.663Z,28.10
2022-12-17T07:34:34.075Z,29.50
2022-12-17T07:37:20.754Z,25.60
2022-12-17T07:40:06.277Z,26.30
2022-12-17T07:42:51.824Z,26.17
2022-12-17T07:45:38.937Z,29.17
2022-12-17T07:48:24.571Z,28.30
2022-12-17T07:51:10.355Z,27.33
2022-12-17T07:53:56.071Z,27.77
2022-12-17T07:56:41.891Z,26.47
2022-12-17T07:59:27.287Z,30.40
2022-12-17T08:02:17.102Z,29.27
2022-12-17T08:05:03.016Z,26.40
2022-12-17T08:07:48.746Z,24.40
2022-12-17T08:10:34.412Z,25.00
2022-12-17T08:13:22.157Z,29.20
2022-12-17T08:16:08.226Z,28.60
2022-12-17T08:18:55.409Z,24.33
2022-12-17T08:21:41.709Z,25.53
2022-12-17T08:24:27.830Z,30.50
2022-12-17T08:27:13.365Z,29.10
2022-12-17T08:29:58.957Z,28.20
2022-12-17T08:32:45.195Z,28.90
2022-12-17T08:35:32.668Z,33.87
2022-12-17T08:38:20.439Z,29.63
2022-12-17T08:41:06.223Z,28.30
2022-12-17T08:43:51.956Z,34.73
2022-12-17T08:46:37.853Z,34.77
2022-12-17T08:49:23.504Z,35.10
2022-12-17T08:52:10.869Z,34.10
2022-12-17T08:54:57.004Z,30.90
2022-12-17T08:57:42.624Z,29.47
2022-12-17T09:00:29.471Z,30.10
2022-12-17T09:03:16.214Z,29.10
2022-12-17T09:06:02.158Z,29.27
2022-12-17T09:08:49.190Z,28.10
2022-12-17T09:11:35.590Z,30.43
2022-12-17T09:14:21.319Z,35.00
2022-12-17T09:17:07.208Z,32.80
2022-12-17T09:19:52.677Z,30.87
2022-12-17T09:22:38.654Z,28.10
2022-12-17T09:25:27.302Z,27.60
2022-12-17T09:28:13.098Z,31.10
2022-12-17T09:30:58.850Z,27.30
2022-12-17T09:33:44.547Z,28.63
2022-12-17T09:36:26.472Z,30.60
2022-12-17T09:39:12.447Z,28.67
2022-12-17T09:42:08.971Z,30.50
2022-12-17T09:45:01.606Z,31.43
2022-12-17T09:47:55.648Z,27.70
2022-12-17T09:50:41.730Z,28.60
2022-12-17T09:53:37.923Z,30.03
2022-12-17T09:56:25.402Z,29.30
2022-12-17T09:59:12.642Z,29.10
2022-12-17T10:02:01.486Z,28.07
2022-12-17T10:04:52.460Z,32.90
2022-12-17T10:07:41.389Z,30.90
2022-12-17T10:10:35.449Z,29.80
2022-12-17T10:13:25.971Z,37.27
2022-12-17T10:16:12.932Z,34.00
2022-12-17T10:18:58.946Z,32.53
2022-12-17T10:21:48.760Z,32.63
2022-12-17T10:24:34.248Z,30.40
2022-12-17T10:27:27.885Z,31.23
2022-12-17T10:30:13.801Z,29.03
2022-12-17T10:33:00.895Z,31.33
2022-12-17T10:35:54.479Z,30.50
2022-12-17T10:38:42.551Z,29.13
2022-12-17T10:41:42.281Z,29.70
2022-12-17T10:44:42.246Z,30.13
2022-12-17T10:47:31.158Z,32.63
2022-12-17T10:50:19.409Z,28.63
2022-12-17T10:53:06.900Z,24.53
2022-12-17T10:55:54.062Z,23.60
2022-12-17T10:58:47.028Z,28.53
2022-12-17T11:01:39.624Z,25.83
2022-12-17T11:04:42.556Z,26.70
2022-12-17T11:07:34.178Z,26.33
2022-12-17T11:10:21.007Z,22.97
2022-12-17T11:13:13.348Z,27.80
2022-12-17T11:16:02.429Z,24.37
2022-12-17T11:18:54.023Z,27.63
2022-12-17T11:21:43.644Z,31.37
2022-12-17T11:24:35.825Z,26.63
2022-12-17T11:27:25.995Z,29.30
2022-12-17T11:30:13.050Z,27.90
2022-12-17T11:33:30.972Z,29.53
2022-12-17T11:36:30.306Z,27.00
2022-12-17T11:39:25.353Z,27.17
2022-12-17T11:42:18.499Z,29.27
2022-12-17T11:45:12.964Z,27.67
2022-12-17T11:48:06.554Z,25.67
2022-12-17T11:51:09.928Z,29.43
2022-12-17T11:54:14.240Z,30.10
2022-12-17T11:57:04.264Z,30.13
2022-12-17T11:59:58.171Z,28.40
2022-12-17T12:03:01.489Z,29.90
2022-12-17T12:05:57.190Z,31.33
2022-12-17T12:08:48.515Z,30.67
2022-12-17T12:11:45.754Z,35.37
2022-12-17T12:14:45.417Z,32.13
2022-12-17T12:17:46.132Z,28.67
2022-12-17T12:20:44.345Z,29.03
2022-12-17T12:23:41.423Z,34.63
2022-12-17T12:26:34.134Z,33.03
2022-12-17T12:29:28.807Z,29.90
2022-12-17T12:32:23.994Z,30.87
2022-12-17T12:35:12.703Z,29.83
2022-12-17T12:37:58.122Z,33.70
2022-12-17T12:40:54.206Z,34.40
2022-12-17T12:43:42.101Z,28.70
2022-12-17T12:46:50.546Z,32.27
2022-12-17T12:49:41.974Z,32.93
2022-12-17T12:52:37.098Z,38.40
2022-12-17T12:55:23.191Z,31.97
2022-12-17T12:58:16.496Z,34.17
2022-12-17T13:01:12.728Z,35.00
2022-12-17T13:04:07.995Z,34.80
2022-12-17T13:06:50.896Z,34.93
2022-12-17T13:09:38.652Z,30.70
2022-12-17T13:12:21.462Z,33.30
2022-12-17T13:14:55.680Z,34.43
2022-12-17T13:17:32.580Z,31.07
2022-12-17T13:20:04.631Z,35.17
2022-12-17T13:22:34.669Z,33.17
2022-12-17T13:25:24.564Z,37.00
2022-12-17T13:27:52.875Z,31.80
2022-12-17T13:30:30.808Z,38.17
2022-12-17T13:33:22.710Z,34.47
2022-12-17T13:36:07.230Z,33.67
2022-12-17T13:38:43.917Z,31.93
2022-12-17T13:41:15.703Z,32.40
2022-12-17T13:43:46.639Z,33.93
2022-12-17T13:46:27.037Z,29.80
2022-12-17T13:48:57.628Z,32.27
2022-12-17T13:51:27.938Z,28.83
2022-12-17T13:53:58.393Z,31.33
2022-12-17T13:56:30.481Z,32.50
2022-12-17T13:59:08.186Z,29.27
2022-12-17T14:01:46.027Z,31.07
2022-12-17T14:04:21.773Z,29.67
2022-12-17T14:06:51.840Z,29.23
2022-12-17T14:09:23.248Z,33.27
2022-12-17T14:12:20.053Z,30.93
2022-12-17T14:14:50.044Z,30.67
2022-12-17T14:17:20.217Z,29.10
2022-12-17T14:19:49.709Z,31.83
2022-12-17T14:22:22.927Z,29.57
2022-12-17T14:24:51.207Z,29.60
2022-12-17T14:27:25.233Z,32.90
2022-12-17T14:29:53.525Z,35.90
2022-12-17T14:32:31.281Z,34.73
2022-12-17T14:35:00.957Z,34.30
2022-12-17T14:37:30.291Z,36.00
2022-12-17T14:40:04.232Z,36.50
2022-12-17T14:42:37.229Z,37.90
2022-12-17T14:45:08.429Z,38.17
2022-12-17T14:47:38.507Z,35.13
2022-12-17T14:50:25.167Z,35.73
2022-12-17T14:52:54.669Z,29.70
2022-12-17T14:55:24.886Z,32.57
2022-12-17T14:58:06.937Z,30.00
2022-12-17T15:00:35.568Z,30.80
2022-12-17T15:03:04.044Z,27.40
2022-12-17T15:05:32.604Z,27.97
2022-12-17T15:08:00.777Z,28.90
2022-12-17T15:10:28.918Z,27.83
2022-12-17T15:13:00.354Z,29.40
2022-12-17T15:15:28.691Z,28.17
2022-12-17T15:17:56.897Z,29.40
2022-12-17T15:20:25.093Z,35.73
2022-12-17T15:22:53.346Z,36.20
2022-12-17T15:25:21.528Z,30.50
2022-12-17T15:27:49.812Z,37.97
2022-12-17T15:30:19.973Z,36.80
2022-12-17T15:32:48.063Z,33.57
2022-12-17T15:35:16.570Z,41.67
2022-12-17T15:37:44.824Z,57.30
2022-12-17T15:40:13.532Z,47.90
2022-12-17T15:43:03.118Z,47.03
2022-12-17T15:45:35.887Z,44.30
2022-12-17T15:48:04.007Z,44.20
2022-12-17T15:50:32.257Z,41.90
2022-12-17T15:53:00.355Z,33.47
2022-12-17T15:55:28.880Z,25.67
2022-12-17T15:57:56.923Z,26.33
2022-12-17T16:00:25.445Z,28.80
2022-12-17T16:02:54.951Z,31.77
2022-12-17T16:05:24.168Z,33.93
2022-12-17T16:07:52.899Z,35.60
2022-12-17T16:10:21.114Z,37.63
2022-12-17T16:12:49.687Z,35.90
2022-12-17T16:15:19.210Z,34.73
2022-12-17T16:17:47.701Z,32.03
2022-12-17T16:20:17.432Z,39.60
2022-12-17T16:22:45.539Z,36.00
2022-12-17T16:25:14.126Z,37.03
2022-12-17T16:27:42.398Z,32.33
2022-12-17T16:30:12.185Z,37.93
2022-12-17T16:32:40.380Z,35.27
2022-12-17T16:35:09.135Z,34.33
2022-12-17T16:37:38.551Z,37.43
2022-12-17T16:40:08.201Z,37.83
2022-12-17T16:42:36.406Z,44.23
2022-12-17T16:45:05.186Z,46.33
2022-12-17T16:47:33.307Z,36.33
2022-12-17T16:50:01.707Z,40.03
2022-12-17T16:52:29.950Z,42.00
2022-12-17T16:54:59.723Z,33.93
2022-12-17T16:57:27.805Z,46.50
2022-12-17T16:59:55.942Z,40.23
2022-12-17T17:02:24.268Z,36.87
2022-12-17T17:04:52.628Z,36.83
2022-12-17T17:07:20.845Z,37.70
2022-12-17T17:09:49.108Z,48.80
2022-12-17T17:12:18.577Z,46.47
2022-12-17T17:14:46.938Z,51.67
2022-12-17T17:17:15.210Z,45.83
2022-12-17T17:19:43.490Z,41.73
2022-12-17T17:22:11.525Z,42.70
2022-12-17T17:24:39.820Z,46.77
2022-12-17T17:27:07.913Z,45.83
2022-12-17T17:29:37.416Z,40.83
2022-12-17T17:32:13.938Z,49.43
2022-12-17T17:34:42.670Z,43.13
2022-12-17T17:37:10.797Z,48.87
2022-12-17T17:39:38.891Z,40.50
2022-12-17T17:42:07.201Z,44.10
2022-12-17T17:44:37.601Z,42.07
2022-12-17T17:47:05.992Z,42.47
2022-12-17T17:49:34.511Z,42.00
2022-12-17T17:52:10.931Z,40.70
2022-12-17T17:54:40.441Z,44.07
2022-12-17T17:57:09.200Z,41.77
2022-12-17T17:59:39.583Z,39.83
2022-12-17T18:02:08.935Z,39.40
2022-12-17T18:04:37.310Z,37.20
2022-12-17T18:09:54.010Z,41.53
2022-12-17T18:12:39.749Z,39.57
2022-12-17T18:15:15.386Z,34.97
2022-12-17T18:17:45.003Z,40.10
2022-12-17T18:20:13.604Z,43.63
2022-12-17T18:22:41.757Z,38.33
2022-12-17T18:25:10.497Z,44.50
2022-12-17T18:27:40.450Z,47.10
2022-12-17T18:30:11.318Z,46.03
2022-12-17T18:32:39.604Z,46.67
2022-12-17T18:35:08.754Z,48.83
2022-12-17T18:37:37.683Z,43.97
2022-12-17T18:40:07.151Z,42.17
2022-12-17T18:42:53.094Z,50.27
2022-12-17T18:45:23.054Z,41.50
2022-12-17T18:47:54.584Z,45.83
2022-12-17T18:50:22.755Z,51.50
2022-12-17T18:52:50.891Z,48.07
2022-12-17T18:55:19.375Z,46.93
2022-12-17T18:57:47.602Z,50.37
2022-12-17T19:00:16.083Z,49.30
2022-12-17T19:02:46.041Z,45.13
2022-12-17T19:05:14.341Z,48.33
2022-12-17T19:07:42.743Z,43.70
2022-12-17T19:10:11.783Z,43.27
2022-12-17T19:12:39.964Z,48.43
2022-12-17T19:15:09.358Z,46.57
2022-12-17T19:17:37.693Z,44.63
2022-12-17T19:20:08.915Z,54.97
2022-12-17T19:22:37.059Z,44.83
2022-12-17T19:25:05.869Z,48.77
2022-12-17T19:27:34.081Z,44.93
2022-12-17T19:30:02.312Z,41.00
2022-12-17T19:32:30.484Z,44.47
2022-12-17T19:34:59.654Z,39.67
2022-12-17T19:37:29.314Z,47.03
2022-12-17T19:39:57.539Z,43.47
2022-12-17T19:42:25.752Z,48.70
2022-12-17T19:44:57.393Z,45.17
2022-12-17T19:47:25.930Z,41.87
2022-12-17T19:49:54.175Z,43.87
2022-12-17T19:52:22.414Z,46.60
2022-12-17T19:54:52.335Z,42.10
2022-12-17T19:57:20.416Z,51.97
2022-12-17T19:59:48.649Z,44.77
2022-12-17T20:02:17.400Z,46.83
2022-12-17T20:04:45.983Z,46.17
2022-12-17T20:07:14.002Z,49.13
2022-12-17T20:09:44.542Z,43.83
2022-12-17T20:12:14.246Z,49.03
2022-12-17T20:14:42.468Z,46.53
2022-12-17T20:17:11.095Z,40.97
2022-12-17T20:19:42.327Z,42.43
2022-12-17T20:22:11.127Z,42.37
2022-12-17T20:24:39.255Z,39.70
2022-12-17T20:27:08.022Z,45.30
2022-12-17T20:29:37.460Z,43.23
2022-12-17T20:32:06.183Z,40.37
2022-12-17T20:34:34.509Z,42.10
2022-12-17T20:37:02.608Z,42.03
2022-12-17T20:39:32.175Z,40.83
2022-12-17T20:42:00.366Z,42.30
2022-12-17T20:44:28.942Z,41.27
2022-12-17T20:46:58.325Z,47.80
2022-12-17T20:49:28.313Z,37.90
2022-12-17T20:51:56.655Z,35.47
2022-12-17T20:54:25.250Z,37.80
2022-12-17T20:56:53.439Z,43.90
2022-12-17T20:59:21.876Z,42.93
2022-12-17T21:01:55.554Z,40.27
2022-12-17T21:04:26.097Z,40.37
2022-12-17T21:06:54.190Z,38.63
2022-12-17T21:09:25.519Z,35.93
2022-12-17T21:11:54.008Z,35.87
2022-12-17T21:14:22.335Z,36.47
2022-12-17T21:16:50.872Z,30.37
2022-12-17T21:19:20.890Z,37.83
2022-12-17T21:21:50.513Z,35.77
2022-12-17T21:24:18.668Z,34.60
2022-12-17T21:26:48.104Z,35.40
2022-12-17T21:29:16.997Z,40.10
2022-12-17T21:31:47.560Z,43.67
2022-12-17T21:34:18.121Z,44.10
2022-12-17T21:36:46.397Z,47.43
2022-12-17T21:39:17.199Z,42.77
2022-12-17T21:42:06.875Z,47.00
2022-12-17T21:44:35.247Z,45.13
2022-12-17T21:47:03.558Z,42.33
2022-12-17T21:49:32.579Z,42.30
2022-12-17T21:52:02.065Z,41.00
2022-12-17T21:54:31.686Z,48.83
2022-12-17T21:56:59.760Z,42.90
2022-12-17T21:59:28.038Z,48.07
2022-12-17T22:01:57.502Z,43.30
2022-12-17T22:04:26.997Z,44.73
2022-12-17T22:07:00.581Z,41.90
2022-12-17T22:09:38.635Z,49.00
2022-12-17T22:12:38.854Z,43.20
2022-12-17T22:15:10.957Z,42.40
2022-12-17T22:17:40.165Z,43.03
2022-12-17T22:20:10.732Z,41.90
2022-12-17T22:22:38.959Z,46.53
2022-12-17T22:25:10.730Z,45.47
2022-12-17T22:27:40.972Z,46.30
2022-12-17T22:30:31.317Z,45.30
2022-12-17T22:33:07.597Z,34.80
2022-12-17T22:37:48.587Z,40.97
2022-12-17T22:42:57.840Z,45.80
2022-12-17T22:44:30.406Z,46.73
2022-12-17T22:44:52.017Z,45.43
2022-12-17T22:47:21.880Z,38.10
2022-12-17T22:49:50.349Z,35.03
2022-12-17T22:52:19.370Z,32.60
2022-12-17T22:54:48.783Z,37.93
2022-12-17T22:57:37.066Z,33.50
2022-12-17T23:00:10.464Z,38.60
2022-12-17T23:02:38.866Z,33.83
2022-12-17T23:05:07.753Z,36.23
2022-12-17T23:07:36.571Z,32.47
2022-12-17T23:10:05.058Z,37.47
2022-12-17T23:12:53.188Z,28.43
2022-12-17T23:15:29.019Z,32.43
2022-12-17T23:17:59.545Z,31.97
2022-12-17T23:20:29.596Z,36.30
2022-12-17T23:22:58.106Z,35.80
2022-12-17T23:25:26.765Z,38.47
2022-12-17T23:27:56.448Z,36.07
2022-12-17T23:30:24.776Z,35.00
2022-12-17T23:32:52.936Z,35.93
2022-12-17T23:35:21.142Z,36.33
2022-12-17T23:37:49.430Z,32.73
2022-12-17T23:40:17.971Z,34.70
2022-12-17T23:42:46.287Z,34.47
2022-12-17T23:45:15.767Z,34.17
2022-12-17T23:47:44.016Z,39.20
2022-12-17T23:50:12.822Z,34.37
2022-12-17T23:52:41.148Z,37.77
2022-12-17T23:55:11.454Z,33.67
2022-12-17T23:57:39.761Z,41.47
